Time;durP1;ratioP1;P1;durP2;ratioP2;P2;SDS_P1;SDS_P2;PMS_P1;PMS_P2;Temp;Humidity;BMP_temperature;BMP_pressure;BME280_temperature;BME280_humidity;BME280_pressure;Samples;Min_cycle;Max_cycle;Signal;HPM_P1;HPM_P2
2023/04/27 00:01:47;;;;;;;;;;;;;;;28.89;28.20;100123.63;5097588;28;1167;-19
2023/04/27 00:04:13;;;;;;;;;;;;;;;29.44;27.48;100118.94;5097369;28;1122;-18
2023/04/27 00:06:39;;;;;;;;;;;;;;;29.03;28.18;100118.22;5097166;28;1247;-19
2023/04/27 00:09:04;;;;;;;;;;;;;;;28.67;28.46;100110.31;5102034;28;1133;-19
2023/04/27 00:11:30;;;;;;;;;;;;;;;29.27;27.94;100118.56;5102542;28;1114;-18
2023/04/27 00:13:55;;;;;;;;;;;;;;;29.54;27.29;100122.03;5097439;28;1129;-19
2023/04/27 00:16:21;;;;;;;;;;;;;;;29.40;27.44;100115.81;5097284;28;1094;-19
2023/04/27 00:18:46;;;;;;;;;;;;;;;28.76;28.40;100113.63;5096795;28;1894;-19
2023/04/27 00:21:12;;;;;;;;;;;;;;;29.21;27.76;100107.53;5098506;28;1134;-19
2023/04/27 00:23:37;;;;;;;;;;;;;;;29.50;27.33;100117.22;5097756;28;943;-19
2023/04/27 00:26:03;;;;;;;;;;;;;;;29.00;27.91;100113.19;5096515;28;1075;-19
2023/04/27 00:28:28;;;;;;;;;;;;;;;28.62;28.40;100111.97;5096842;28;1074;-19
2023/04/27 00:30:57;;;;;;;;;;;;;;;28.95;27.31;100111.09;5078956;28;1323;-19
2023/04/27 00:33:26;;;;;;;;;;;;;;;28.91;27.65;100107.97;5084708;28;1304;-19
2023/04/27 00:35:51;;;;;;;;;;;;;;;28.63;27.77;100100.94;5102739;28;1021;-19
2023/04/27 00:38:17;;;;;;;;;;;;;;;28.29;28.38;100098.22;5078716;28;1959;-19
2023/04/27 00:40:42;;;;;;;;;;;;;;;29.19;27.26;100098.81;5096507;28;1027;-19
2023/04/27 00:43:07;;;;;;;;;;;;;;;29.36;26.91;100111.03;5078752;28;1095;-19
2023/04/27 00:45:36;;;;;;;;;;;;;;;28.57;28.12;100096.38;5084979;28;1305;-19
2023/04/27 00:48:01;;;;;;;;;;;;;;;29.02;27.79;100111.13;5091186;28;1209;-19
2023/04/27 00:50:30;;;;;;;;;;;;;;;29.53;26.89;100104.06;5078386;28;1249;-19
2023/04/27 00:52:56;;;;;;;;;;;;;;;29.80;26.32;100112.13;5096881;28;1142;-19
2023/04/27 00:55:24;;;;;;;;;;;;;;;28.82;27.49;100110.09;5096550;28;1045;-19
2023/04/27 00:57:50;;;;;;;;;;;;;;;28.55;28.03;100118.22;5078312;28;1909;-18
2023/04/27 01:00:16;;;;;;;;;;;;;;;29.51;26.95;100116.19;5078189;28;1101;-19
2023/04/27 01:02:41;;;;;;;;;;;;;;;29.76;26.43;100104.63;5096462;28;1104;-19
2023/04/27 01:05:08;;;;;;;;;;;;;;;28.67;27.76;100114.88;5078513;28;1118;-19
2023/04/27 01:07:39;;;;;;;;;;;;;;;28.93;27.55;100105.06;5096966;28;1166;-18
2023/04/27 01:10:05;;;;;;;;;;;;;;;29.63;26.59;100119.09;5085177;28;1098;-19
2023/04/27 01:12:31;;;;;;;;;;;;;;;29.28;27.02;100114.81;5096514;28;1157;-18
2023/04/27 01:14:57;;;;;;;;;;;;;;;28.64;28.09;100126.97;5096711;28;1118;-19
2023/04/27 01:17:23;;;;;;;;;;;;;;;29.26;27.14;100123.13;5096657;28;1031;-19
2023/04/27 01:19:50;;;;;;;;;;;;;;;29.70;26.56;100122.59;5096379;28;1976;-19
2023/04/27 01:22:16;;;;;;;;;;;;;;;29.95;26.06;100135.38;5096790;28;1138;-18
2023/04/27 01:24:41;;;;;;;;;;;;;;;28.74;28.04;100129.25;5096302;28;1165;-19
2023/04/27 01:27:07;;;;;;;;;;;;;;;28.96;27.59;100129.03;5078206;28;1135;-19
2023/04/27 01:29:32;;;;;;;;;;;;;;;29.60;26.65;100131.19;5079750;28;1133;-19
2023/04/27 01:31:58;;;;;;;;;;;;;;;29.49;26.69;100124.53;5081603;28;1691;-18
2023/04/27 01:34:23;;;;;;;;;;;;;;;28.62;28.07;100118.22;5089633;28;1158;-18
2023/04/27 01:36:49;;;;;;;;;;;;;;;29.25;27.31;100124.19;5100549;28;1042;-19
2023/04/27 01:39:15;;;;;;;;;;;;;;;29.74;26.19;100114.84;5100264;28;1918;-19
2023/04/27 01:41:40;;;;;;;;;;;;;;;29.93;26.26;100122.03;5081608;28;1343;-19
2023/04/27 01:44:06;;;;;;;;;;;;;;;28.86;27.39;100102.41;5099927;28;1126;-19
2023/04/27 01:46:31;;;;;;;;;;;;;;;28.89;27.61;100104.69;5101613;28;880;-19
2023/04/27 01:48:57;;;;;;;;;;;;;;;29.58;26.60;100108.84;5081576;28;1086;-19
2023/04/27 01:51:22;;;;;;;;;;;;;;;29.93;26.08;100110.34;5083265;28;1536;-19
2023/04/27 01:53:48;;;;;;;;;;;;;;;28.78;27.52;100108.03;5084405;28;2084;-18
2023/04/27 01:56:15;;;;;;;;;;;;;;;28.95;27.70;100103.81;5084401;28;1126;-19
2023/04/27 01:58:40;;;;;;;;;;;;;;;29.57;26.58;100104.47;5109662;28;1917;-19
2023/04/27 02:01:06;;;;;;;;;;;;;;;29.89;25.83;100098.31;5081882;28;1194;-19
2023/04/27 02:03:32;;;;;;;;;;;;;;;29.04;27.09;100098.22;5080995;28;1213;-27
2023/04/27 02:05:57;;;;;;;;;;;;;;;28.65;27.54;100117.81;5081673;28;1047;-19
2023/04/27 02:08:23;;;;;;;;;;;;;;;29.43;26.76;100111.81;5081290;28;1147;-19
2023/04/27 02:10:48;;;;;;;;;;;;;;;29.73;26.23;100105.88;5102206;28;896;-19
2023/04/27 02:13:15;;;;;;;;;;;;;;;28.83;27.33;100110.91;5081543;28;1253;-19
2023/04/27 02:15:41;;;;;;;;;;;;;;;28.89;27.56;100120.06;5081377;28;1126;-19
2023/04/27 02:18:06;;;;;;;;;;;;;;;29.56;26.47;100125.31;5080929;28;1909;-19
2023/04/27 02:20:32;;;;;;;;;;;;;;;29.86;25.87;100136.69;5081459;28;1254;-18
2023/04/27 02:22:59;;;;;;;;;;;;;;;28.99;26.90;100144.88;5092722;28;1236;-18
2023/04/27 02:25:25;;;;;;;;;;;;;;;28.58;27.45;100135.91;5080962;28;1323;-19
2023/04/27 02:27:51;;;;;;;;;;;;;;;29.51;26.33;100137.88;5081319;28;1134;-18
2023/04/27 02:30:18;;;;;;;;;;;;;;;29.79;25.93;100158.41;5099346;28;1221;-18
2023/04/27 02:32:43;;;;;;;;;;;;;;;28.99;27.04;100158.41;5098986;28;1062;-19
2023/04/27 02:35:09;;;;;;;;;;;;;;;28.63;27.16;100165.88;5103756;28;879;-18
2023/04/27 02:37:35;;;;;;;;;;;;;;;29.52;26.22;100162.03;5081243;28;1117;-19
2023/04/27 02:40:01;;;;;;;;;;;;;;;29.90;25.81;100165.88;5080095;28;1910;-19
2023/04/27 02:42:26;;;;;;;;;;;;;;;29.16;26.62;100157.97;5080054;28;1145;-19
2023/04/27 02:44:52;;;;;;;;;;;;;;;28.59;27.17;100156.53;5099018;28;1078;-19
2023/04/27 02:47:17;;;;;;;;;;;;;;;29.34;26.71;100141.88;5098645;28;1105;-19
2023/04/27 02:49:43;;;;;;;;;;;;;;;29.77;26.07;100138.81;5080780;28;1246;-18
2023/04/27 02:52:08;;;;;;;;;;;;;;;28.90;27.14;100138.81;5099025;28;1042;-19
2023/04/27 02:54:34;;;;;;;;;;;;;;;28.78;27.34;100138.63;5098467;28;1221;-18
2023/04/27 02:57:00;;;;;;;;;;;;;;;29.58;26.26;100155.75;5099544;28;1116;-19
2023/04/27 03:01:55;;;;;;;;;;;;;;;27.62;23.64;100166.41;5077269;28;1318;-31
2023/04/27 03:04:21;;;;;;;;;;;;;;;28.98;25.11;100164.84;5072202;28;1137;-32
2023/04/27 03:06:47;;;;;;;;;;;;;;;29.23;23.59;100180.44;5071961;28;1082;-38
2023/04/27 03:09:14;;;;;;;;;;;;;;;29.26;22.55;100193.56;5071672;28;1149;-35
2023/04/27 03:11:39;;;;;;;;;;;;;;;26.03;23.53;100181.69;5072997;28;1062;-36
2023/04/27 03:14:05;;;;;;;;;;;;;;;25.97;25.02;100193.22;5073364;28;1221;-33
2023/04/27 03:16:31;;;;;;;;;;;;;;;26.08;22.90;100192.72;5071679;28;1127;-33
2023/04/27 03:18:56;;;;;;;;;;;;;;;23.87;23.60;100177.16;5073760;28;1123;-38
2023/04/27 03:21:22;;;;;;;;;;;;;;;27.48;20.65;100163.66;5071272;28;1968;-40
2023/04/27 03:23:48;;;;;;;;;;;;;;;28.64;20.02;100172.97;5071081;28;1098;-41
2023/04/27 03:26:14;;;;;;;;;;;;;;;26.68;23.22;100161.19;5072590;28;1034;-26
2023/04/27 03:28:40;;;;;;;;;;;;;;;25.39;25.43;100174.00;5073272;28;1007;-23
2023/04/27 03:31:10;;;;;;;;;;;;;;;27.78;22.85;100180.66;5071214;28;1098;-23
2023/04/27 03:33:36;;;;;;;;;;;;;;;28.25;22.22;100161.88;5073377;28;1130;-24
2023/04/27 03:36:03;;;;;;;;;;;;;;;28.39;22.36;100151.94;5072419;28;1114;-22
2023/04/27 03:38:28;;;;;;;;;;;;;;;28.32;22.58;100165.44;5071285;28;1315;-22
2023/04/27 03:40:54;;;;;;;;;;;;;;;28.33;22.62;100163.56;5071228;28;1951;-24
2023/04/27 03:43:20;;;;;;;;;;;;;;;28.38;22.44;100154.84;5071627;28;1333;-22
2023/04/27 03:45:45;;;;;;;;;;;;;;;25.83;24.77;100149.09;5071311;28;1158;-23
2023/04/27 03:48:12;;;;;;;;;;;;;;;25.92;25.88;100150.69;5064522;28;888;-27
2023/04/27 03:50:38;;;;;;;;;;;;;;;28.44;22.75;100135.09;5071486;28;1093;-23
2023/04/27 03:53:04;;;;;;;;;;;;;;;28.42;21.79;100153.38;5069837;28;1210;-28
2023/04/27 03:55:30;;;;;;;;;;;;;;;23.88;22.54;100159.16;5061864;28;1361;-25
2023/04/27 03:57:55;;;;;;;;;;;;;;;25.49;20.96;100171.03;5052344;28;1007;-23
2023/04/27 04:00:21;;;;;;;;;;;;;;;25.18;23.25;100180.13;5072308;28;1926;-24
2023/04/27 04:02:47;;;;;;;;;;;;;;;25.41;23.90;100174.66;5087199;28;1103;-24
2023/04/27 04:05:14;;;;;;;;;;;;;;;25.72;24.40;100189.00;5079896;28;1172;-23
2023/04/27 04:07:42;;;;;;;;;;;;;;;27.61;20.91;100176.38;5071290;28;1095;-24
2023/04/27 04:10:08;;;;;;;;;;;;;;;27.97;21.25;100181.75;5070997;28;1233;-24
2023/04/27 04:12:35;;;;;;;;;;;;;;;28.06;21.82;100195.94;5062075;28;1099;-24
2023/04/27 04:15:02;;;;;;;;;;;;;;;28.17;21.94;100180.97;5057791;28;1158;-24
2023/04/27 04:17:28;;;;;;;;;;;;;;;28.33;21.81;100177.94;5057519;28;1344;-23
2023/04/27 04:19:53;;;;;;;;;;;;;;;28.56;21.99;100192.94;5057678;28;1902;-25
2023/04/27 04:22:19;;;;;;;;;;;;;;;28.70;21.98;100195.66;5066072;28;1416;-23
2023/04/27 04:24:44;;;;;;;;;;;;;;;28.80;21.80;100196.09;5070563;28;1150;-23
2023/04/27 04:27:10;;;;;;;;;;;;;;;28.89;21.85;100199.44;5058672;28;1228;-27
2023/04/27 04:29:36;;;;;;;;;;;;;;;28.88;22.07;100195.03;5074084;28;1229;-27
2023/04/27 04:32:01;;;;;;;;;;;;;;;27.48;23.29;100190.66;5063439;28;1316;-26
2023/04/27 04:34:28;;;;;;;;;;;;;;;26.71;24.92;100188.63;5077343;28;1123;-24
2023/04/27 04:36:56;;;;;;;;;;;;;;;28.42;22.57;100194.81;5063441;28;1192;-23
2023/04/27 04:39:21;;;;;;;;;;;;;;;27.11;24.12;100187.31;5064011;28;1155;-24
2023/04/27 04:41:50;;;;;;;;;;;;;;;26.46;25.14;100201.69;5063216;28;1913;-24
2023/04/27 04:44:16;;;;;;;;;;;;;;;28.03;23.36;100199.88;5076874;28;1229;-23
2023/04/27 04:46:43;;;;;;;;;;;;;;;28.19;23.17;100205.97;5069438;28;1930;-28
2023/04/27 04:49:08;;;;;;;;;;;;;;;28.30;23.14;100218.03;5071669;28;1114;-24
2023/04/27 04:51:34;;;;;;;;;;;;;;;28.34;23.33;100230.16;5056869;28;1261;-25
2023/04/27 04:54:00;;;;;;;;;;;;;;;28.42;23.37;100242.66;5071275;28;1210;-23
2023/04/27 04:56:25;;;;;;;;;;;;;;;28.30;23.13;100250.50;5071447;28;1115;-26
2023/04/27 04:58:52;;;;;;;;;;;;;;;27.13;25.14;100250.03;5076116;28;1114;-28
2023/04/27 05:01:18;;;;;;;;;;;;;;;27.94;24.13;100256.00;5077611;28;1901;-23
2023/04/27 05:03:43;;;;;;;;;;;;;;;28.70;23.09;100258.75;5068582;28;1201;-24
2023/04/27 05:06:09;;;;;;;;;;;;;;;28.68;23.25;100262.69;5082785;28;1014;-23
2023/04/27 05:08:34;;;;;;;;;;;;;;;28.63;23.40;100263.31;5085646;28;1066;-24
2023/04/27 05:11:00;;;;;;;;;;;;;;;28.62;23.36;100263.50;5082603;28;1051;-27
2023/04/27 05:13:25;;;;;;;;;;;;;;;28.69;23.37;100264.38;5086228;28;1540;-27
2023/04/27 05:15:51;;;;;;;;;;;;;;;26.60;24.72;100275.47;5084145;28;1054;-25
2023/04/27 05:18:17;;;;;;;;;;;;;;;26.76;25.33;100266.28;5097360;28;1026;-23
2023/04/27 05:20:42;;;;;;;;;;;;;;;28.39;23.47;100270.97;5097825;28;1902;-26
2023/04/27 05:23:08;;;;;;;;;;;;;;;28.50;23.58;100285.75;5061278;28;1186;-28
2023/04/27 05:25:40;;;;;;;;;;;;;;;28.61;23.45;100281.63;5092083;28;1166;-28
2023/04/27 05:28:07;;;;;;;;;;;;;;;28.71;23.39;100292.06;5096597;28;1109;-26
2023/04/27 05:30:32;;;;;;;;;;;;;;;28.78;23.46;100295.59;5097460;28;1115;-28
2023/04/27 05:32:58;;;;;;;;;;;;;;;27.39;25.24;100299.91;5097767;28;1152;-28
2023/04/27 05:35:23;;;;;;;;;;;;;;;27.26;25.51;100300.59;5094360;28;990;-27
2023/04/27 05:37:49;;;;;;;;;;;;;;;28.67;23.65;100321.41;5097225;28;1126;-27
2023/04/27 05:40:14;;;;;;;;;;;;;;;28.76;23.81;100329.34;5082581;28;1905;-28
2023/04/27 05:42:40;;;;;;;;;;;;;;;28.85;23.47;100331.66;5083219;28;1197;-29
2023/04/27 05:45:06;;;;;;;;;;;;;;;28.93;22.62;100336.03;5097202;28;1035;-29
2023/04/27 05:47:31;;;;;;;;;;;;;;;28.96;22.22;100340.22;5081903;28;1257;-27
2023/04/27 05:49:57;;;;;;;;;;;;;;;27.43;24.21;100351.63;5096612;28;1002;-28
2023/04/27 05:52:28;;;;;;;;;;;;;;;26.73;25.19;100345.75;5090268;28;1055;-28
2023/04/27 05:54:53;;;;;;;;;;;;;;;28.62;23.19;100352.81;5096485;28;1011;-26
2023/04/27 05:57:19;;;;;;;;;;;;;;;28.78;22.90;100367.88;5093935;28;1253;-26
2023/04/27 05:59:44;;;;;;;;;;;;;;;28.86;22.94;100375.81;5076717;28;1906;-27
2023/04/27 06:02:10;;;;;;;;;;;;;;;28.94;22.93;100369.38;5092418;28;1015;-27
2023/04/27 06:04:36;;;;;;;;;;;;;;;29.06;23.12;100369.63;5087080;28;1062;-29
2023/04/27 06:07:04;;;;;;;;;;;;;;;27.59;24.30;100377.56;5079856;28;1114;-28
2023/04/27 06:09:30;;;;;;;;;;;;;;;26.98;25.61;100383.19;5087208;28;1257;-29
2023/04/27 06:11:57;;;;;;;;;;;;;;;28.66;23.74;100384.66;5079198;28;1383;-28
2023/04/27 06:14:23;;;;;;;;;;;;;;;28.97;23.41;100374.41;5087640;28;1290;-29
2023/04/27 06:16:48;;;;;;;;;;;;;;;29.13;23.17;100397.53;5090740;28;1186;-30
2023/04/27 06:19:14;;;;;;;;;;;;;;;28.52;23.64;100399.19;5095644;28;1245;-30
2023/04/27 06:21:39;;;;;;;;;;;;;;;27.35;25.14;100401.22;5090000;28;1973;-27
2023/04/27 06:24:05;;;;;;;;;;;;;;;28.46;24.25;100398.16;5095506;28;1242;-30
2023/04/27 06:26:30;;;;;;;;;;;;;;;28.89;23.73;100404.34;5093252;28;1201;-29
2023/04/27 06:28:56;;;;;;;;;;;;;;;29.03;23.49;100406.06;5082729;28;1339;-28
2023/04/27 06:31:22;;;;;;;;;;;;;;;29.19;23.35;100410.28;5085940;28;1038;-29
2023/04/27 06:33:47;;;;;;;;;;;;;;;29.26;23.12;100414.88;5070405;28;990;-30
2023/04/27 06:36:12;;;;;;;;;;;;;;;28.55;23.88;100404.19;5076808;28;1129;-28
2023/04/27 06:38:38;;;;;;;;;;;;;;;27.31;25.50;100422.38;5084252;28;1115;-27
2023/04/27 06:41:04;;;;;;;;;;;;;;;28.63;24.37;100424.88;5082401;28;1902;-27
2023/04/27 06:43:30;;;;;;;;;;;;;;;28.95;23.75;100431.44;5095951;28;1095;-26
2023/04/27 06:45:56;;;;;;;;;;;;;;;29.06;23.57;100429.22;5096100;28;1289;-28
2023/04/27 06:48:21;;;;;;;;;;;;;;;28.80;23.75;100422.63;5091298;28;1127;-27
2023/04/27 06:50:47;;;;;;;;;;;;;;;27.41;25.45;100430.16;5082249;28;1058;-28
2023/04/27 06:53:12;;;;;;;;;;;;;;;28.23;25.01;100431.66;5092074;28;1150;-28
2023/04/27 06:55:38;;;;;;;;;;;;;;;28.81;23.80;100443.25;5095970;28;1503;-27
2023/04/27 06:58:03;;;;;;;;;;;;;;;28.91;23.72;100440.97;5079756;28;1057;-29
2023/04/27 07:00:29;;;;;;;;;;;;;;;29.00;23.24;100449.81;5080448;28;1956;-29
2023/04/27 07:02:55;;;;;;;;;;;;;;;29.11;23.12;100442.13;5078462;28;1174;-31
2023/04/27 07:05:20;;;;;;;;;;;;;;;28.74;23.35;100437.81;5077924;28;1099;-30
2023/04/27 07:07:46;;;;;;;;;;;;;;;27.22;25.59;100437.91;5079786;28;1189;-30
2023/04/27 07:10:11;;;;;;;;;;;;;;;28.31;24.34;100433.41;5078338;28;1234;-29
2023/04/27 07:12:37;;;;;;;;;;;;;;;28.87;23.56;100433.47;5095041;28;1273;-28
2023/04/27 07:15:05;;;;;;;;;;;;;;;29.04;23.24;100429.41;5082610;28;1209;-28
2023/04/27 07:17:31;;;;;;;;;;;;;;;28.72;23.22;100423.63;5095384;28;1098;-27
2023/04/27 07:19:56;;;;;;;;;;;;;;;27.26;25.64;100419.41;5091115;28;1910;-28
2023/04/27 07:22:22;;;;;;;;;;;;;;;27.91;25.09;100418.56;5076164;28;1182;-29
2023/04/27 07:24:47;;;;;;;;;;;;;;;28.76;23.58;100433.00;5080169;28;1117;-31
2023/04/27 07:27:13;;;;;;;;;;;;;;;28.94;22.65;100420.81;5084705;28;1114;-28
2023/04/27 07:29:39;;;;;;;;;;;;;;;29.03;21.34;100402.53;5075411;28;984;-28
2023/04/27 07:32:07;;;;;;;;;;;;;;;29.16;20.27;100399.84;5085432;28;1062;-28
2023/04/27 07:34:33;;;;;;;;;;;;;;;27.90;21.32;100391.72;5095707;28;1035;-29
2023/04/27 07:36:59;;;;;;;;;;;;;;;27.05;23.62;100387.84;5095473;28;983;-29
2023/04/27 07:39:25;;;;;;;;;;;;;;;27.30;23.95;100382.06;5077828;28;1073;-29
2023/04/27 07:41:51;;;;;;;;;;;;;;;26.86;24.54;100384.72;5086617;28;1917;-29
2023/04/27 07:44:17;;;;;;;;;;;;;;;27.51;23.83;100367.69;5095017;28;1075;-27
2023/04/27 07:46:43;;;;;;;;;;;;;;;27.81;23.53;100375.66;5084499;28;1134;-29
2023/04/27 07:49:09;;;;;;;;;;;;;;;27.20;24.22;100363.50;5083762;28;1031;-26
2023/04/27 07:51:35;;;;;;;;;;;;;;;26.86;24.67;100372.06;5099250;28;1034;-28
2023/04/27 07:54:01;;;;;;;;;;;;;;;27.53;23.94;100367.53;5076373;28;1147;-28
2023/04/27 07:56:26;;;;;;;;;;;;;;;27.69;23.92;100361.88;5079025;28;1067;-31
2023/04/27 07:58:52;;;;;;;;;;;;;;;27.03;24.33;100369.16;5061462;28;1115;-28
2023/04/27 08:01:18;;;;;;;;;;;;;;;27.41;24.05;100353.72;5078954;28;1914;-28
2023/04/27 08:03:43;;;;;;;;;;;;;;;27.83;23.63;100348.44;5078607;28;1134;-28
2023/04/27 08:06:09;;;;;;;;;;;;;;;27.73;23.69;100351.50;5088593;28;1031;-29
2023/04/27 08:08:34;;;;;;;;;;;;;;;26.95;24.68;100351.19;5082632;28;1161;-29
2023/04/27 08:11:00;;;;;;;;;;;;;;;27.25;24.61;100334.06;5088923;28;1080;-27
2023/04/27 08:13:25;;;;;;;;;;;;;;;27.01;24.69;100336.94;5095084;28;1114;-27
2023/04/27 08:15:53;;;;;;;;;;;;;;;26.81;24.97;100358.28;5078456;28;1023;-30
2023/04/27 08:18:18;;;;;;;;;;;;;;;27.75;23.95;100346.72;5082948;28;1043;-27
2023/04/27 08:20:44;;;;;;;;;;;;;;;27.94;23.74;100342.50;5087838;28;1988;-28
2023/04/27 08:23:09;;;;;;;;;;;;;;;28.46;22.69;100346.75;5079176;28;1158;-29
2023/04/27 08:25:35;;;;;;;;;;;;;;;28.48;23.03;100355.47;5089096;28;909;-27
2023/04/27 08:28:01;;;;;;;;;;;;;;;28.78;22.45;100352.44;5094266;28;1138;-31
2023/04/27 08:30:26;;;;;;;;;;;;;;;29.20;22.18;100354.22;5096958;28;1115;-27
2023/04/27 08:32:53;;;;;;;;;;;;;;;28.99;22.40;100349.81;5098476;28;1400;-27
2023/04/27 08:35:18;;;;;;;;;;;;;;;28.96;22.53;100359.16;5084768;28;1174;-30
2023/04/27 08:37:44;;;;;;;;;;;;;;;29.33;22.21;100358.81;5093673;28;1201;-30
2023/04/27 08:40:10;;;;;;;;;;;;;;;29.08;22.55;100356.69;5097833;28;1985;-28
2023/04/27 08:42:35;;;;;;;;;;;;;;;28.44;22.90;100365.03;5098222;28;1234;-27
2023/04/27 08:45:01;;;;;;;;;;;;;;;27.46;24.14;100360.19;5088766;28;1150;-27
2023/04/27 08:47:26;;;;;;;;;;;;;;;28.58;23.19;100355.09;5078092;28;1047;-28
2023/04/27 08:49:52;;;;;;;;;;;;;;;28.76;22.45;100368.03;5087633;28;849;-32
2023/04/27 08:52:17;;;;;;;;;;;;;;;28.97;22.55;100366.28;5098070;28;1046;-27
2023/04/27 08:54:43;;;;;;;;;;;;;;;29.15;22.50;100381.09;5080457;28;1019;-28
2023/04/27 08:57:11;;;;;;;;;;;;;;;28.44;22.79;100373.16;5095466;28;1109;-26
2023/04/27 08:59:37;;;;;;;;;;;;;;;28.12;23.69;100392.50;5077654;28;1126;-29
2023/04/27 09:02:03;;;;;;;;;;;;;;;28.06;21.93;100396.03;5080278;28;1914;-27
2023/04/27 09:04:35;;;;;;;;;;;;;;;27.18;23.54;100404.19;5089095;28;1551;-29
2023/04/27 09:07:08;;;;;;;;;;;;;;;27.14;24.04;100422.63;5081480;28;1023;-29
2023/04/27 09:09:34;;;;;;;;;;;;;;;28.19;23.23;100425.00;5097694;28;1058;-30
2023/04/27 09:12:01;;;;;;;;;;;;;;;27.24;24.45;100430.41;5094261;28;1115;-28
2023/04/27 09:14:27;;;;;;;;;;;;;;;26.94;25.13;100419.69;5069782;28;914;-29
2023/04/27 09:16:58;;;;;;;;;;;;;;;27.57;24.14;100430.94;5083893;28;1135;-27
2023/04/27 09:19:24;;;;;;;;;;;;;;;27.21;24.61;100440.78;5097265;28;1078;-26
2023/04/27 09:21:50;;;;;;;;;;;;;;;26.93;24.31;100445.00;5093748;28;1987;-27
2023/04/27 09:24:16;;;;;;;;;;;;;;;28.10;23.41;100454.91;5096941;28;1011;-27
2023/04/27 09:26:41;;;;;;;;;;;;;;;27.22;24.34;100464.91;5092254;28;1221;-27
2023/04/27 09:29:07;;;;;;;;;;;;;;;26.89;25.24;100451.81;5069172;28;1191;-27
2023/04/27 09:31:33;;;;;;;;;;;;;;;28.11;23.41;100456.56;5097015;28;1135;-30
2023/04/27 09:33:59;;;;;;;;;;;;;;;27.57;23.94;100457.97;5091642;28;1019;-30
2023/04/27 09:36:24;;;;;;;;;;;;;;;26.96;25.21;100451.91;5083823;28;1091;-26
2023/04/27 09:38:50;;;;;;;;;;;;;;;28.11;23.94;100456.56;5081073;28;1118;-28
2023/04/27 09:41:16;;;;;;;;;;;;;;;27.24;24.43;100465.53;5097036;28;1910;-28
2023/04/27 09:43:43;;;;;;;;;;;;;;;26.87;25.33;100449.31;5064721;28;1277;-28
2023/04/27 09:46:08;;;;;;;;;;;;;;;28.17;23.82;100467.63;5093476;28;1226;-28
2023/04/27 09:48:34;;;;;;;;;;;;;;;27.36;24.53;100463.16;5081301;28;966;-26
2023/04/27 09:51:00;;;;;;;;;;;;;;;27.05;25.38;100469.69;5077180;28;975;-29
2023/04/27 09:53:28;;;;;;;;;;;;;;;28.19;23.76;100468.28;5091252;28;962;-31
2023/04/27 09:55:58;;;;;;;;;;;;;;;27.56;24.32;100469.81;5087250;28;1103;-31
2023/04/27 09:58:26;;;;;;;;;;;;;;;27.12;25.41;100462.50;5047421;28;1052;-31
2023/04/27 10:00:58;;;;;;;;;;;;;;;27.97;24.19;100462.91;5090649;28;1981;-27
2023/04/27 10:03:34;;;;;;;;;;;;;;;27.24;25.37;100453.91;5098405;28;1010;-26
2023/04/27 10:06:19;;;;;;;;;;;;;;;26.98;25.44;100457.91;5072553;28;1200;-26
2023/04/27 10:08:44;;;;;;;;;;;;;;;27.92;23.98;100457.25;5093704;28;997;-29
2023/04/27 10:11:14;;;;;;;;;;;;;;;27.53;24.72;100462.91;5064492;28;1130;-27
2023/04/27 10:13:49;;;;;;;;;;;;;;;27.36;24.96;100462.34;5076655;28;1086;-29
2023/04/27 10:16:15;;;;;;;;;;;;;;;28.22;24.13;100459.75;5076543;28;1019;-28
2023/04/27 10:18:49;;;;;;;;;;;;;;;27.90;24.52;100467.41;5086477;28;1174;-29
2023/04/27 10:21:15;;;;;;;;;;;;;;;27.92;24.54;100478.88;5080185;28;1918;-30
2023/04/27 10:23:50;;;;;;;;;;;;;;;28.48;23.82;100472.66;5097316;28;994;-27
2023/04/27 10:26:24;;;;;;;;;;;;;;;27.92;24.49;100470.78;5076378;28;1185;-27
2023/04/27 10:28:56;;;;;;;;;;;;;;;28.02;24.30;100467.72;5089582;28;1112;-27
2023/04/27 10:31:28;;;;;;;;;;;;;;;28.51;23.82;100468.69;5084704;28;1066;-26
2023/04/27 10:34:07;;;;;;;;;;;;;;;28.11;23.98;100475.50;5094216;28;1175;-26
2023/04/27 10:36:33;;;;;;;;;;;;;;;28.08;24.50;100462.38;5069204;28;1141;-29
2023/04/27 10:38:59;;;;;;;;;;;;;;;28.42;23.69;100468.03;5091478;28;1073;-28
2023/04/27 10:41:32;;;;;;;;;;;;;;;28.14;24.43;100457.22;5069176;28;1910;-27
2023/04/27 10:44:12;;;;;;;;;;;;;;;28.20;24.70;100459.97;5077616;28;1133;-28
2023/04/27 10:46:38;;;;;;;;;;;;;;;28.47;24.02;100454.75;5089981;28;1119;-28
2023/04/27 10:49:03;;;;;;;;;;;;;;;28.13;24.34;100453.66;5077426;28;1387;-27
2023/04/27 10:51:29;;;;;;;;;;;;;;;28.40;24.53;100455.72;5063576;28;897;-30
2023/04/27 10:53:55;;;;;;;;;;;;;;;28.39;24.33;100462.19;5091299;28;1179;-32
2023/04/27 10:56:22;;;;;;;;;;;;;;;28.23;24.26;100451.44;5096132;28;1062;-26
2023/04/27 10:58:48;;;;;;;;;;;;;;;28.51;24.24;100473.28;5095913;28;1058;-29
2023/04/27 11:01:22;;;;;;;;;;;;;;;28.38;23.91;100464.06;5086189;28;1909;-26
2023/04/27 11:03:53;;;;;;;;;;;;;;;27.95;24.43;100444.19;5075817;28;985;-27
2023/04/27 11:06:19;;;;;;;;;;;;;;;28.39;24.59;100444.09;5086877;28;1146;-30
2023/04/27 11:08:44;;;;;;;;;;;;;;;27.92;24.79;100446.44;5077958;28;1043;-26
2023/04/27 11:11:13;;;;;;;;;;;;;;;27.79;25.24;100439.91;5087452;28;1084;-27
2023/04/27 11:13:38;;;;;;;;;;;;;;;28.38;24.67;100447.81;5079286;28;1034;-29
2023/04/27 11:16:04;;;;;;;;;;;;;;;27.77;24.70;100446.53;5082172;28;1042;-28
2023/04/27 11:18:30;;;;;;;;;;;;;;;27.61;24.94;100448.47;5080061;28;1103;-28
2023/04/27 11:21:06;;;;;;;;;;;;;;;28.30;24.38;100450.66;5087102;28;1918;-28
2023/04/27 11:23:37;;;;;;;;;;;;;;;27.72;25.18;100452.53;5092864;28;1289;-28
2023/04/27 11:26:10;;;;;;;;;;;;;;;27.78;25.06;100438.22;5090663;28;1109;-27
2023/04/27 11:28:35;;;;;;;;;;;;;;;27.99;24.65;100445.44;5098914;28;1131;-28
2023/04/27 11:31:01;;;;;;;;;;;;;;;27.59;25.22;100445.91;5083757;28;1070;-29
2023/04/27 11:33:26;;;;;;;;;;;;;;;28.13;24.51;100436.63;5099345;28;1126;-26
2023/04/27 11:35:52;;;;;;;;;;;;;;;28.25;24.45;100448.53;5095477;28;1105;-27
2023/04/27 11:38:17;;;;;;;;;;;;;;;27.76;24.80;100426.75;5079148;28;1094;-27
2023/04/27 11:40:46;;;;;;;;;;;;;;;28.09;24.81;100433.47;5092296;28;1906;-27
2023/04/27 11:43:12;;;;;;;;;;;;;;;28.10;24.44;100451.34;5091390;28;1182;-30
2023/04/27 11:45:40;;;;;;;;;;;;;;;27.71;24.97;100451.66;5099148;28;1070;-30
2023/04/27 11:48:06;;;;;;;;;;;;;;;28.40;24.40;100439.50;5087562;28;1123;-29
2023/04/27 11:50:32;;;;;;;;;;;;;;;27.94;24.62;100456.03;5091496;28;1107;-29
2023/04/27 11:52:59;;;;;;;;;;;;;;;27.75;24.80;100457.53;5091073;28;1117;-28
2023/04/27 11:55:24;;;;;;;;;;;;;;;28.36;24.51;100455.31;5080643;28;1077;-26
2023/04/27 11:57:54;;;;;;;;;;;;;;;28.00;24.78;100459.81;5099128;28;1054;-26
2023/04/27 12:00:20;;;;;;;;;;;;;;;27.60;23.43;100463.81;5085551;28;1909;-29
2023/04/27 12:02:45;;;;;;;;;;;;;;;28.29;23.56;100463.34;5089153;28;1201;-31
2023/04/27 12:05:11;;;;;;;;;;;;;;;27.79;24.66;100466.09;5081368;28;1054;-25
2023/04/27 12:07:37;;;;;;;;;;;;;;;27.69;24.84;100461.88;5099551;28;1155;-27
2023/04/27 12:10:03;;;;;;;;;;;;;;;28.38;24.37;100463.22;5085397;28;1051;-29
2023/04/27 12:12:28;;;;;;;;;;;;;;;27.91;24.70;100466.41;5098872;28;1038;-28
2023/04/27 12:14:54;;;;;;;;;;;;;;;27.63;24.80;100460.72;5095731;28;1066;-27
2023/04/27 12:17:20;;;;;;;;;;;;;;;28.46;24.15;100453.06;5088149;28;1198;-28
2023/04/27 12:19:45;;;;;;;;;;;;;;;27.90;24.54;100454.75;5082512;28;1144;-26
2023/04/27 12:22:11;;;;;;;;;;;;;;;27.73;24.94;100465.84;5078962;28;1967;-26
2023/04/27 12:24:36;;;;;;;;;;;;;;;28.63;23.95;100458.16;5081227;28;1122;-25
2023/04/27 12:27:03;;;;;;;;;;;;;;;27.96;24.78;100462.06;5089139;28;1034;-26
2023/04/27 12:29:28;;;;;;;;;;;;;;;27.90;24.70;100470.97;5094068;28;1098;-25
2023/04/27 12:31:54;;;;;;;;;;;;;;;28.57;24.08;100469.78;5069525;28;1048;-25
2023/04/27 12:34:20;;;;;;;;;;;;;;;27.87;24.56;100463.25;5095696;28;1230;-25
2023/04/27 12:36:45;;;;;;;;;;;;;;;27.89;24.58;100469.31;5088560;28;1130;-26
2023/04/27 12:39:15;;;;;;;;;;;;;;;28.30;24.18;100462.31;5095051;28;1181;-26
2023/04/27 12:41:42;;;;;;;;;;;;;;;27.79;24.54;100475.03;5095947;28;1898;-25
2023/04/27 12:44:07;;;;;;;;;;;;;;;28.27;24.48;100478.09;5098041;28;1249;-27
2023/04/27 12:46:33;;;;;;;;;;;;;;;27.90;24.46;100472.81;5074770;28;1242;-26